createdAt,value
2019-05-18T00:01:51.226Z,100453.86
2019-05-18T00:04:20.363Z,100452.42
2019-05-18T00:06:49.427Z,100451.49
2019-05-18T00:09:18.667Z,100445.77
2019-05-18T00:11:47.922Z,100455.75
2019-05-18T00:14:17.162Z,100455.98
2019-05-18T00:16:46.225Z,100448.88
2019-05-18T00:19:15.485Z,100448.88
2019-05-18T00:21:44.591Z,100449.55
2019-05-18T00:24:13.667Z,100439.14
2019-05-18T00:26:42.812Z,100439.14
2019-05-18T00:29:11.983Z,100444.45
2019-05-18T00:31:41.070Z,100445.31
2019-05-18T00:34:10.106Z,100447.15
2019-05-18T00:36:39.319Z,100446.73
2019-05-18T00:39:08.555Z,100440.18
2019-05-18T00:41:37.734Z,100442.97
2019-05-18T00:44:06.917Z,100433.83
2019-05-18T00:46:36.168Z,100435.95
2019-05-18T00:49:05.351Z,100431.36
2019-05-18T00:51:34.522Z,100438.55
2019-05-18T00:54:03.771Z,100438.55
2019-05-18T00:56:32.975Z,100428.87
2019-05-18T00:59:02.157Z,100433.84
2019-05-18T01:01:31.283Z,100434.43
2019-05-18T01:04:00.425Z,100434.43
2019-05-18T01:06:29.556Z,100433.27
2019-05-18T01:08:58.635Z,100426.42
2019-05-18T01:11:27.855Z,100431.58
2019-05-18T01:13:56.878Z,100429.72
2019-05-18T01:16:26.030Z,100424.05
2019-05-18T01:18:55.160Z,100421.34
2019-05-18T01:21:24.254Z,100421.34
2019-05-18T01:23:53.415Z,100413.56
2019-05-18T01:26:22.652Z,100416.95
2019-05-18T01:28:53.131Z,100411.73
2019-05-18T01:31:22.312Z,100416.02
2019-05-18T01:33:53.542Z,100411.75
2019-05-18T01:36:22.741Z,100411.75
2019-05-18T01:38:51.929Z,100407.42
2019-05-18T01:41:20.988Z,100407.42
2019-05-18T01:43:50.118Z,100410.31
2019-05-18T01:46:20.099Z,100407.77
2019-05-18T01:48:49.289Z,100407.50
2019-05-18T01:51:18.430Z,100401.22
2019-05-18T01:53:47.428Z,100401.22
2019-05-18T01:56:16.634Z,100405.08
2019-05-18T01:58:45.861Z,100408.34
2019-05-18T02:01:15.086Z,100399.97
2019-05-18T02:03:44.296Z,100408.93
2019-05-18T02:06:13.504Z,100403.37
2019-05-18T02:08:42.595Z,100402.68
2019-05-18T02:11:11.861Z,100408.16
2019-05-18T02:13:41.054Z,100414.17
2019-05-18T02:16:10.205Z,100414.17
2019-05-18T02:18:39.333Z,100412.47
2019-05-18T02:21:08.596Z,100412.47
2019-05-18T02:23:37.755Z,100411.44
2019-05-18T02:26:07.027Z,100411.91
2019-05-18T02:28:36.150Z,100409.06
2019-05-18T02:31:05.438Z,100402.70
2019-05-18T02:33:34.524Z,100402.70
2019-05-18T02:36:03.697Z,100401.42
2019-05-18T02:38:32.818Z,100403.42
2019-05-18T02:41:01.987Z,100408.23
2019-05-18T02:43:31.016Z,100398.28
2019-05-18T02:46:00.177Z,100403.66
2019-05-18T02:48:47.131Z,100403.66
2019-05-18T02:51:00.259Z,100409.50
2019-05-18T02:53:29.412Z,100408.24
2019-05-18T02:55:58.553Z,100407.88
2019-05-18T02:58:27.741Z,100406.34
2019-05-18T03:00:57.006Z,100402.77
2019-05-18T03:03:26.107Z,100400.08
2019-05-18T03:05:55.722Z,100400.08
2019-05-18T03:08:24.855Z,100403.41
2019-05-18T03:10:53.956Z,100403.41
2019-05-18T03:13:23.136Z,100397.88
2019-05-18T03:15:52.358Z,100397.88
2019-05-18T03:18:21.599Z,100393.50
2019-05-18T03:20:50.842Z,100388.77
2019-05-18T03:23:20.071Z,100384.22
2019-05-18T03:25:49.210Z,100392.49
2019-05-18T03:28:18.304Z,100388.05
2019-05-18T03:30:47.331Z,100389.66
2019-05-18T03:33:16.527Z,100379.89
2019-05-18T03:35:45.678Z,100383.98
2019-05-18T03:38:14.699Z,100388.21
2019-05-18T03:40:44.074Z,100389.48
2019-05-18T03:43:13.312Z,100393.31
2019-05-18T03:45:42.498Z,100389.03
2019-05-18T03:48:11.719Z,100387.84
2019-05-18T03:50:40.971Z,100387.84
2019-05-18T03:53:10.102Z,100386.32
2019-05-18T03:55:39.221Z,100385.84
2019-05-18T03:58:08.407Z,100382.20
2019-05-18T04:00:37.530Z,100383.98
2019-05-18T04:03:06.607Z,100385.64
2019-05-18T04:05:35.720Z,100381.38
2019-05-18T04:08:04.958Z,100382.92
2019-05-18T04:10:34.122Z,100379.44
2019-05-18T04:13:03.274Z,100380.97
2019-05-18T04:15:32.398Z,100379.23
2019-05-18T04:18:01.446Z,100375.63
2019-05-18T04:20:30.584Z,100378.12
2019-05-18T04:22:59.638Z,100381.72
2019-05-18T04:25:28.700Z,100386.09
2019-05-18T04:27:57.820Z,100386.09
2019-05-18T04:30:26.965Z,100394.02
2019-05-18T04:32:56.260Z,100393.03
2019-05-18T04:35:25.532Z,100392.37
2019-05-18T04:37:54.647Z,100390.01
2019-05-18T04:40:23.783Z,100389.86
2019-05-18T04:42:53.000Z,100401.10
2019-05-18T04:45:22.234Z,100396.69
2019-05-18T04:47:51.420Z,100401.42
2019-05-18T04:50:20.607Z,100401.42
2019-05-18T04:52:49.746Z,100396.80
2019-05-18T04:55:18.850Z,100401.77
2019-05-18T04:57:48.051Z,100404.38
2019-05-18T05:00:17.224Z,100404.47
2019-05-18T05:02:46.351Z,100408.08
2019-05-18T05:05:15.562Z,100405.68
2019-05-18T05:07:44.793Z,100405.68
2019-05-18T05:10:14.015Z,100402.73
2019-05-18T05:12:43.074Z,100397.69
2019-05-18T05:15:12.377Z,100397.53
2019-05-18T05:17:41.497Z,100400.89
2019-05-18T05:20:19.452Z,100400.89
2019-05-18T05:22:41.864Z,100402.17
2019-05-18T05:25:11.051Z,100405.40
2019-05-18T05:27:40.266Z,100405.59
2019-05-18T05:30:09.705Z,100390.70
2019-05-18T05:32:38.707Z,100394.66
2019-05-18T05:35:09.868Z,100399.61
2019-05-18T05:37:39.106Z,100391.16
2019-05-18T05:40:08.510Z,100393.09
2019-05-18T05:42:37.722Z,100394.46
2019-05-18T05:45:07.188Z,100396.23
2019-05-18T05:47:37.494Z,100394.13
2019-05-18T05:50:07.380Z,100396.58
2019-05-18T05:52:36.612Z,100397.49
2019-05-18T05:55:06.004Z,100395.67
2019-05-18T05:57:35.172Z,100395.67
2019-05-18T06:00:05.017Z,100406.37
2019-05-18T06:02:34.234Z,100406.37
2019-05-18T06:05:03.489Z,100410.84
2019-05-18T06:07:32.634Z,100414.81
2019-05-18T06:10:01.882Z,100420.28
2019-05-18T06:12:31.110Z,100419.29
2019-05-18T06:15:00.260Z,100411.46
2019-05-18T06:17:29.391Z,100412.48
2019-05-18T06:19:58.560Z,100404.88
2019-05-18T06:22:27.659Z,100403.48
2019-05-18T06:24:56.758Z,100406.68
2019-05-18T06:27:25.892Z,100411.36
2019-05-18T06:29:55.142Z,100408.59
2019-05-18T06:32:24.335Z,100411.33
2019-05-18T06:34:53.575Z,100411.52
2019-05-18T06:37:22.581Z,100415.12
2019-05-18T06:39:51.579Z,100419.34
2019-05-18T06:42:20.599Z,100416.80
2019-05-18T06:44:49.657Z,100420.49
2019-05-18T06:47:18.764Z,100418.06
2019-05-18T06:49:47.746Z,100418.06
2019-05-18T06:52:16.843Z,100421.80
2019-05-18T06:54:46.037Z,100419.41
2019-05-18T06:57:16.479Z,100418.97
2019-05-18T06:59:45.678Z,100420.52
2019-05-18T07:02:15.948Z,100421.06
2019-05-18T07:04:44.967Z,100417.63
2019-05-18T07:07:14.037Z,100419.91
2019-05-18T07:09:43.203Z,100418.17
2019-05-18T07:12:12.355Z,100422.55
2019-05-18T07:14:41.337Z,100418.61
2019-05-18T07:17:10.353Z,100415.34
2019-05-18T07:19:39.362Z,100426.42
2019-05-18T07:22:08.566Z,100420.94
2019-05-18T07:24:37.583Z,100422.34
2019-05-18T07:27:06.753Z,100425.73
2019-05-18T07:29:38.178Z,100425.89
2019-05-18T07:32:07.270Z,100424.24
2019-05-18T07:34:36.389Z,100423.70
2019-05-18T07:37:05.570Z,100421.44
2019-05-18T07:39:36.167Z,100424.36
2019-05-18T07:42:05.475Z,100433.19
2019-05-18T07:44:34.521Z,100428.71
2019-05-18T07:47:03.669Z,100422.86
2019-05-18T07:49:32.731Z,100431.61
2019-05-18T07:52:01.995Z,100431.61
2019-05-18T07:54:31.189Z,100429.34
2019-05-18T07:57:00.220Z,100435.50
2019-05-18T07:59:29.258Z,100441.06
2019-05-18T08:01:58.297Z,100439.91
2019-05-18T08:04:27.476Z,100435.28
2019-05-18T08:06:56.628Z,100436.64
2019-05-18T08:09:25.707Z,100443.74
2019-05-18T08:11:54.801Z,100436.30
2019-05-18T08:14:23.982Z,100436.30
2019-05-18T08:16:53.192Z,100435.59
2019-05-18T08:19:22.468Z,100452.13
2019-05-18T08:21:53.580Z,100444.67
2019-05-18T08:24:22.392Z,100431.29
2019-05-18T08:26:51.400Z,100435.39
2019-05-18T08:29:20.604Z,100438.30
2019-05-18T08:31:49.694Z,100444.63
2019-05-18T08:34:18.867Z,100440.71
2019-05-18T08:36:47.949Z,100437.49
2019-05-18T08:39:17.111Z,100436.91
2019-05-18T08:41:48.744Z,100437.33
2019-05-18T08:44:17.023Z,100437.33
2019-05-18T08:46:46.152Z,100437.65
2019-05-18T08:49:15.298Z,100437.65
2019-05-18T08:51:44.545Z,100447.06
2019-05-18T08:54:13.805Z,100301.97
2019-05-18T08:56:42.915Z,100448.86
2019-05-18T08:59:12.010Z,100448.86
2019-05-18T09:01:41.187Z,100451.87
2019-05-18T09:04:10.330Z,100453.34
2019-05-18T09:06:39.496Z,100449.09
2019-05-18T09:09:08.741Z,100449.20
2019-05-18T09:11:38.886Z,100449.20
2019-05-18T09:14:08.037Z,100453.59
2019-05-18T09:16:37.189Z,100451.09
2019-05-18T09:19:06.300Z,100441.80
2019-05-18T09:21:35.542Z,100451.50
2019-05-18T09:24:04.688Z,100454.27
2019-05-18T09:26:33.789Z,100453.89
2019-05-18T09:29:03.105Z,100452.59
2019-05-18T09:31:32.350Z,100450.48
2019-05-18T09:34:01.632Z,100455.22
2019-05-18T09:36:30.806Z,100457.66
2019-05-18T09:39:00.012Z,100454.78
2019-05-18T09:41:30.180Z,100460.14
2019-05-18T09:43:59.284Z,100452.50
2019-05-18T09:46:28.458Z,100460.63
2019-05-18T09:48:57.590Z,100458.73
2019-05-18T09:51:26.765Z,100454.28
2019-05-18T09:53:56.012Z,100454.28
2019-05-18T09:56:25.352Z,100462.03
2019-05-18T09:58:54.364Z,100465.89
2019-05-18T10:01:23.521Z,100462.73
2019-05-18T10:03:52.711Z,100458.96
2019-05-18T10:06:21.911Z,100460.68
2019-05-18T10:08:51.072Z,100457.44
2019-05-18T10:11:20.276Z,100460.87
2019-05-18T10:13:49.392Z,100460.87
2019-05-18T10:16:18.675Z,100462.70
2019-05-18T10:18:47.800Z,100462.70
2019-05-18T10:21:16.967Z,100459.73
2019-05-18T10:23:46.002Z,100457.59
2019-05-18T10:26:15.094Z,100456.50
2019-05-18T10:28:44.251Z,100457.81
2019-05-18T10:31:13.366Z,100457.81
2019-05-18T10:33:42.619Z,100449.88
2019-05-18T10:36:11.956Z,100449.88
2019-05-18T10:38:41.072Z,100445.38
2019-05-18T10:41:10.218Z,100435.17
2019-05-18T10:43:39.265Z,100448.20
2019-05-18T10:46:08.477Z,100449.06
2019-05-18T10:48:37.603Z,100443.29
2019-05-18T10:51:06.799Z,100447.08
2019-05-18T10:53:36.052Z,100447.09
2019-05-18T10:56:05.271Z,100439.64
2019-05-18T10:58:34.436Z,100447.15
2019-05-18T11:01:03.795Z,100447.15
2019-05-18T11:03:32.870Z,100439.75
2019-05-18T11:06:02.137Z,100431.79
2019-05-18T11:08:31.191Z,100431.48
2019-05-18T11:11:00.235Z,100431.78
2019-05-18T11:13:29.313Z,100433.95
2019-05-18T11:15:58.329Z,100434.75
2019-05-18T11:18:30.258Z,100432.12
2019-05-18T11:20:58.528Z,100429.97
2019-05-18T11:23:27.665Z,100430.77
2019-05-18T11:25:56.849Z,100431.55
2019-05-18T11:28:26.069Z,100429.95
2019-05-18T11:30:55.290Z,100424.48
2019-05-18T11:33:25.571Z,100430.67
2019-05-18T11:35:54.682Z,100430.19
2019-05-18T11:38:23.893Z,100427.64
2019-05-18T11:40:53.023Z,100431.38
2019-05-18T11:43:22.185Z,100426.43
2019-05-18T11:45:51.196Z,100430.88
2019-05-18T11:48:20.428Z,100431.25
2019-05-18T11:50:49.598Z,100423.50
2019-05-18T11:53:18.764Z,100431.84
2019-05-18T11:55:47.931Z,100431.84
2019-05-18T11:58:17.101Z,100429.23
2019-05-18T12:00:46.091Z,100426.34
2019-05-18T12:03:15.214Z,100424.30
2019-05-18T12:05:44.416Z,100417.81
2019-05-18T12:08:13.459Z,100427.88
2019-05-18T12:10:42.441Z,100426.14
2019-05-18T12:13:11.581Z,100419.80
2019-05-18T12:15:40.687Z,100419.80
2019-05-18T12:18:09.821Z,100412.95
2019-05-18T12:20:39.050Z,100412.95
2019-05-18T12:23:09.020Z,100408.08
2019-05-18T12:25:38.215Z,100413.94
2019-05-18T12:28:07.449Z,100406.52
2019-05-18T12:30:36.656Z,100409.89
2019-05-18T12:33:05.884Z,100412.30
2019-05-18T12:35:34.943Z,100406.67
2019-05-18T12:38:04.045Z,100412.28
2019-05-18T12:40:33.035Z,100412.28
2019-05-18T12:43:02.172Z,100407.94
2019-05-18T12:45:31.230Z,100405.04
2019-05-18T12:48:00.298Z,100413.72
2019-05-18T12:50:29.414Z,100413.72
2019-05-18T12:52:58.463Z,100411.84
2019-05-18T12:55:27.603Z,100411.84
2019-05-18T12:57:56.720Z,100414.02
2019-05-18T13:00:27.483Z,100418.78
2019-05-18T13:02:56.650Z,100412.03
2019-05-18T13:05:32.797Z,100415.69
2019-05-18T13:08:01.859Z,100415.69
2019-05-18T13:10:30.988Z,100411.14
2019-05-18T13:12:59.983Z,100410.70
2019-05-18T13:15:29.183Z,100407.10
2019-05-18T13:17:58.194Z,100407.10
2019-05-18T13:20:27.374Z,100408.27
2019-05-18T13:22:56.517Z,100403.91
2019-05-18T13:25:25.689Z,100403.24
2019-05-18T13:27:54.753Z,100406.22
2019-05-18T13:30:24.259Z,100406.82
2019-05-18T13:32:53.290Z,100402.07
2019-05-18T13:35:22.468Z,100390.13
2019-05-18T13:37:51.606Z,100407.59
2019-05-18T13:40:21.904Z,100399.70
2019-05-18T13:42:50.915Z,100399.58
2019-05-18T13:45:20.508Z,100375.41
2019-05-18T13:47:49.651Z,100375.41
2019-05-18T13:50:19.241Z,100407.80
2019-05-18T13:52:48.328Z,100408.25
2019-05-18T13:55:17.616Z,100403.98
2019-05-18T13:57:46.781Z,100396.52
2019-05-18T14:00:16.561Z,100397.99
2019-05-18T14:02:45.665Z,100387.72
2019-05-18T14:05:15.077Z,100389.63
2019-05-18T14:07:44.074Z,100393.39
2019-05-18T14:10:13.923Z,100387.71
2019-05-18T14:12:43.004Z,100387.71
2019-05-18T14:15:12.971Z,100390.37
2019-05-18T14:17:42.043Z,100387.17
2019-05-18T14:20:11.238Z,100387.83
2019-05-18T14:22:40.315Z,100387.83
2019-05-18T14:25:18.690Z,100392.34
2019-05-18T14:27:40.448Z,100384.23
2019-05-18T14:30:09.865Z,100383.13
2019-05-18T14:32:38.879Z,100383.13
2019-05-18T14:35:08.694Z,100379.92
2019-05-18T14:37:37.754Z,100384.53
2019-05-18T14:40:07.295Z,100385.70
2019-05-18T14:42:36.326Z,100383.35
2019-05-18T14:45:05.945Z,100386.66
2019-05-18T14:47:35.057Z,100375.09
2019-05-18T14:50:04.471Z,100384.72
2019-05-18T14:52:33.512Z,100377.48
2019-05-18T14:55:02.584Z,100378.52
2019-05-18T14:57:31.692Z,100379.84
2019-05-18T15:00:02.383Z,100381.15
2019-05-18T15:02:31.813Z,100384.14
2019-05-18T15:05:00.808Z,100384.14
2019-05-18T15:07:29.952Z,100383.04
2019-05-18T15:09:58.971Z,100383.55
2019-05-18T15:12:27.993Z,100376.83
2019-05-18T15:14:56.968Z,100376.83
2019-05-18T15:17:26.133Z,100378.58
2019-05-18T15:19:55.102Z,100377.28
2019-05-18T15:22:24.246Z,100377.77
2019-05-18T15:24:53.252Z,100384.38
2019-05-18T15:27:22.291Z,100381.19
2019-05-18T15:29:51.251Z,100388.47
2019-05-18T15:32:20.357Z,100388.47
2019-05-18T15:34:49.354Z,100391.36
2019-05-18T15:37:18.388Z,100394.58
2019-05-18T15:39:47.387Z,100394.58
2019-05-18T15:42:16.391Z,100393.78
2019-05-18T15:44:45.461Z,100394.41
2019-05-18T15:47:14.517Z,100394.67
2019-05-18T15:49:43.595Z,100394.67
2019-05-18T15:52:12.785Z,100393.23
2019-05-18T15:54:41.828Z,100391.98
2019-05-18T15:57:10.862Z,100384.49
2019-05-18T15:59:39.848Z,100389.80
2019-05-18T16:02:08.948Z,100389.80
2019-05-18T16:04:38.001Z,100396.56
2019-05-18T16:07:07.165Z,100396.56
2019-05-18T16:09:36.212Z,100391.34
2019-05-18T16:12:05.363Z,100393.86
2019-05-18T16:14:34.469Z,100394.96
2019-05-18T16:17:03.507Z,100400.75
2019-05-18T16:19:32.467Z,100400.75
2019-05-18T16:22:01.518Z,100401.18
2019-05-18T16:24:30.546Z,100401.18
2019-05-18T16:26:59.562Z,100407.58
2019-05-18T16:29:28.535Z,100407.58
2019-05-18T16:31:57.521Z,100413.34
2019-05-18T16:34:26.570Z,100405.75
2019-05-18T16:36:55.548Z,100410.05
2019-05-18T16:39:24.748Z,100413.16
2019-05-18T16:41:53.886Z,100413.63
2019-05-18T16:44:22.908Z,100418.42
2019-05-18T16:46:51.986Z,100416.53
2019-05-18T16:49:21.016Z,100413.78
2019-05-18T16:51:49.982Z,100418.48
2019-05-18T16:54:19.080Z,100420.53
2019-05-18T16:56:48.063Z,100416.20
2019-05-18T16:59:17.216Z,100418.34
2019-05-18T17:01:46.362Z,100413.01
2019-05-18T17:04:15.399Z,100421.56
2019-05-18T17:06:44.485Z,100421.56
2019-05-18T17:09:13.640Z,100426.95
2019-05-18T17:11:42.691Z,100417.53
2019-05-18T17:14:11.802Z,100419.34
2019-05-18T17:16:40.808Z,100416.72
2019-05-18T17:19:09.930Z,100416.06
2019-05-18T17:21:40.275Z,100423.52
2019-05-18T17:24:09.300Z,100427.41
2019-05-18T17:26:51.497Z,100427.75
2019-05-18T17:29:09.151Z,100423.96
2019-05-18T17:31:38.158Z,100429.52
2019-05-18T17:34:07.202Z,100420.92
2019-05-18T17:36:36.204Z,100437.45
2019-05-18T17:39:06.818Z,100437.36
2019-05-18T17:41:35.957Z,100438.09
2019-05-18T17:44:05.119Z,100436.11
2019-05-18T17:46:35.498Z,100434.33
2019-05-18T17:49:04.737Z,100442.66
2019-05-18T17:51:33.832Z,100449.63
2019-05-18T17:54:03.010Z,100457.35
2019-05-18T17:56:32.177Z,100457.83
2019-05-18T17:59:01.363Z,100463.20
2019-05-18T18:01:30.380Z,100463.20
2019-05-18T18:03:59.454Z,100473.62
2019-05-18T18:06:28.525Z,100468.16
2019-05-18T18:08:57.575Z,100469.42
2019-05-18T18:11:26.707Z,100477.42
2019-05-18T18:13:55.797Z,100482.88
2019-05-18T18:16:25.038Z,100484.36
2019-05-18T18:18:54.237Z,100484.94
2019-05-18T18:21:23.524Z,100487.54
2019-05-18T18:23:55.030Z,100488.20
2019-05-18T18:26:23.579Z,100493.66
2019-05-18T18:28:52.761Z,100498.55
2019-05-18T18:31:22.001Z,100506.03
2019-05-18T18:33:51.124Z,100502.86
2019-05-18T18:36:20.330Z,100501.09
2019-05-18T18:38:49.519Z,100499.02
2019-05-18T18:41:18.592Z,100506.16
2019-05-18T18:43:47.737Z,100511.19
2019-05-18T18:46:16.893Z,100504.23
2019-05-18T18:48:50.998Z,100514.95
2019-05-18T18:51:22.143Z,100517.12
2019-05-18T18:53:54.364Z,100521.30
2019-05-18T18:56:30.705Z,100520.55
2019-05-18T18:59:03.690Z,100519.49
2019-05-18T19:01:32.932Z,100526.94
2019-05-18T19:04:02.113Z,100522.59
2019-05-18T19:06:31.433Z,100528.95
2019-05-18T19:09:00.610Z,100534.53
2019-05-18T19:11:29.679Z,100528.28
2019-05-18T19:14:00.686Z,100522.58
2019-05-18T19:16:29.444Z,100532.98
2019-05-18T19:18:58.501Z,100532.98
2019-05-18T19:21:27.740Z,100533.69
2019-05-18T19:23:56.761Z,100533.69
2019-05-18T19:26:25.966Z,100538.58
2019-05-18T19:28:55.104Z,100538.58
2019-05-18T19:31:24.217Z,100538.47
2019-05-18T19:33:53.321Z,100538.47
2019-05-18T19:36:22.471Z,100541.86
2019-05-18T19:38:51.555Z,100544.86
2019-05-18T19:41:20.759Z,100544.86
2019-05-18T19:43:49.786Z,100550.41
2019-05-18T19:46:18.827Z,100550.84
2019-05-18T19:48:47.895Z,100547.58
2019-05-18T19:51:16.946Z,100550.09
2019-05-18T19:53:45.961Z,100552.95
2019-05-18T19:56:15.050Z,100552.30
2019-05-18T19:58:44.037Z,100551.95
2019-05-18T20:01:13.097Z,100553.34
2019-05-18T20:03:42.196Z,100549.39
2019-05-18T20:06:11.175Z,100554.85
2019-05-18T20:08:40.551Z,100554.47
2019-05-18T20:11:09.548Z,100560.80
2019-05-18T20:13:38.552Z,100558.72
2019-05-18T20:16:07.658Z,100557.12
2019-05-18T20:18:36.787Z,100553.16
2019-05-18T20:21:05.972Z,100552.27
2019-05-18T20:23:35.044Z,100555.84
2019-05-18T20:26:04.263Z,100561.20
2019-05-18T20:28:33.317Z,100561.73
2019-05-18T20:31:02.747Z,100561.21
2019-05-18T20:33:32.320Z,100558.39
2019-05-18T20:36:01.322Z,100561.68
2019-05-18T20:38:30.441Z,100561.68
2019-05-18T20:40:59.595Z,100569.24
2019-05-18T20:43:28.721Z,100569.00
2019-05-18T20:45:57.845Z,100562.41
2019-05-18T20:48:26.973Z,100569.61
2019-05-18T20:50:55.953Z,100571.48
2019-05-18T20:53:25.096Z,100564.64
2019-05-18T20:55:54.257Z,100569.78
2019-05-18T20:58:38.252Z,100574.62
2019-05-18T21:00:54.131Z,100579.32
2019-05-18T21:03:23.152Z,100570.90
2019-05-18T21:05:52.278Z,100570.03
2019-05-18T21:08:21.289Z,100567.27
2019-05-18T21:10:50.374Z,100575.78
2019-05-18T21:13:19.491Z,100573.11
2019-05-18T21:15:48.501Z,100570.25
2019-05-18T21:18:18.626Z,100563.32
2019-05-18T21:20:47.710Z,100565.44
2019-05-18T21:23:16.727Z,100560.10
2019-05-18T21:25:45.803Z,100569.70
2019-05-18T21:28:14.832Z,100556.15
2019-05-18T21:30:43.830Z,100565.44
2019-05-18T21:33:12.975Z,100565.44
2019-05-18T21:35:41.968Z,100560.33
2019-05-18T21:38:10.972Z,100553.31
2019-05-18T21:40:40.085Z,100554.95
2019-05-18T21:43:09.171Z,100548.03
2019-05-18T21:45:38.241Z,100551.23
2019-05-18T21:48:07.299Z,100544.06
2019-05-18T21:50:36.361Z,100545.13
2019-05-18T21:53:05.424Z,100545.13
2019-05-18T21:55:34.481Z,100549.58
2019-05-18T21:58:05.823Z,100547.93
2019-05-18T22:00:35.096Z,100543.55
2019-05-18T22:03:04.261Z,100540.77
2019-05-18T22:05:33.360Z,100533.88
2019-05-18T22:08:02.442Z,100534.70
2019-05-18T22:10:31.713Z,100526.92
2019-05-18T22:13:00.718Z,100526.92
2019-05-18T22:15:29.848Z,100532.04
2019-05-18T22:18:04.930Z,100526.06
2019-05-18T22:20:43.286Z,100526.06
2019-05-18T22:23:08.590Z,100526.70
2019-05-18T22:25:37.763Z,100522.48
2019-05-18T22:28:06.867Z,100522.61
2019-05-18T22:30:35.968Z,100525.28
2019-05-18T22:33:05.135Z,100525.61
2019-05-18T22:35:38.328Z,100529.42
2019-05-18T22:38:05.148Z,100529.42
2019-05-18T22:40:34.241Z,100525.41
2019-05-18T22:43:03.420Z,100523.20
2019-05-18T22:45:32.805Z,100523.20
2019-05-18T22:48:01.935Z,100522.57
2019-05-18T22:50:30.951Z,100522.20
2019-05-18T22:52:59.950Z,100525.00
2019-05-18T22:55:29.046Z,100520.66
2019-05-18T22:57:58.054Z,100520.89
2019-05-18T23:00:27.114Z,100516.47
2019-05-18T23:02:56.157Z,100515.44
2019-05-18T23:05:25.307Z,100518.95
2019-05-18T23:07:54.360Z,100520.56
2019-05-18T23:10:23.518Z,100521.25
2019-05-18T23:12:52.593Z,100521.14
2019-05-18T23:15:21.884Z,100510.42
2019-05-18T23:17:51.044Z,100522.11
2019-05-18T23:20:20.332Z,100521.86
2019-05-18T23:22:49.472Z,100518.80
2019-05-18T23:25:18.593Z,100519.88
2019-05-18T23:27:47.561Z,100514.86
2019-05-18T23:30:16.712Z,100518.34
2019-05-18T23:32:45.741Z,100516.95
2019-05-18T23:35:14.829Z,100508.92
2019-05-18T23:37:43.940Z,100505.99
2019-05-18T23:40:14.322Z,100504.95
2019-05-18T23:42:43.405Z,100510.44
2019-05-18T23:45:12.746Z,100505.28
2019-05-18T23:47:41.874Z,100507.52
2019-05-18T23:50:11.156Z,100506.59
2019-05-18T23:52:40.196Z,100509.98
2019-05-18T23:55:09.466Z,100510.20
2019-05-18T23:57:38.665Z,100510.66
